Time;durP1;ratioP1;P1;durP2;ratioP2;P2;SDS_P1;SDS_P2;PMS_P1;PMS_P2;Temp;Humidity;BMP_temperature;BMP_pressure;BME280_temperature;BME280_humidity;BME280_pressure;Samples;Min_cycle;Max_cycle;Signal;HPM_P1;HPM_P2
2020/06/05 00:00:32;;;;;;;2;0.8;;;;;;;;;;;;;
2020/06/05 00:02:56;;;;;;;1.9;0.9;;;;;;;;;;;;;
2020/06/05 00:05:22;;;;;;;2.6;0.8;;;;;;;;;;;;;
2020/06/05 00:07:47;;;;;;;1.7;0.8;;;;;;;;;;;;;
2020/06/05 00:10:12;;;;;;;1.5;0.8;;;;;;;;;;;;;
2020/06/05 00:12:38;;;;;;;1.7;0.8;;;;;;;;;;;;;
2020/06/05 00:15:04;;;;;;;2.6;1;;;;;;;;;;;;;
2020/06/05 00:17:29;;;;;;;2.1;0.9;;;;;;;;;;;;;
2020/06/05 00:19:54;;;;;;;1.2;0.8;;;;;;;;;;;;;
2020/06/05 00:22:20;;;;;;;1.4;0.9;;;;;;;;;;;;;
2020/06/05 00:24:45;;;;;;;1.3;0.8;;;;;;;;;;;;;
2020/06/05 00:27:11;;;;;;;1.2;0.8;;;;;;;;;;;;;
2020/06/05 00:29:36;;;;;;;1.3;0.8;;;;;;;;;;;;;
2020/06/05 00:34:27;;;;;;;2.4;0.8;;;;;;;;;;;;;
2020/06/05 00:36:53;;;;;;;1.8;0.8;;;;;;;;;;;;;
2020/06/05 00:39:18;;;;;;;1.7;0.8;;;;;;;;;;;;;
2020/06/05 00:41:43;;;;;;;1.7;0.9;;;;;;;;;;;;;
2020/06/05 00:44:09;;;;;;;1;0.7;;;;;;;;;;;;;
2020/06/05 00:46:34;;;;;;;1.9;0.7;;;;;;;;;;;;;
2020/06/05 00:48:59;;;;;;;1.1;0.7;;;;;;;;;;;;;
2020/06/05 00:51:25;;;;;;;0.9;0.7;;;;;;;;;;;;;
2020/06/05 00:53:50;;;;;;;2;0.7;;;;;;;;;;;;;
2020/06/05 00:56:15;;;;;;;2.5;0.8;;;;;;;;;;;;;
2020/06/05 00:58:41;;;;;;;0.9;0.6;;;;;;;;;;;;;
2020/06/05 01:01:06;;;;;;;2.3;0.6;;;;;;;;;;;;;
2020/06/05 01:03:32;;;;;;;0.9;0.7;;;;;;;;;;;;;
2020/06/05 01:05:57;;;;;;;1.5;0.7;;;;;;;;;;;;;
2020/06/05 01:08:24;;;;;;;1.7;0.8;;;;;;;;;;;;;
2020/06/05 01:10:49;;;;;;;2.1;0.7;;;;;;;;;;;;;
2020/06/05 01:13:22;;;;;;;1.5;0.9;;;;;;;;;;;;;
2020/06/05 01:15:41;;;;;;;0.9;0.8;;;;;;;;;;;;;
2020/06/05 01:18:05;;;;;;;1.4;0.8;;;;;;;;;;;;;
2020/06/05 01:20:30;;;;;;;1.8;0.8;;;;;;;;;;;;;
2020/06/05 01:22:55;;;;;;;1.1;0.9;;;;;;;;;;;;;
2020/06/05 01:25:20;;;;;;;1.4;0.7;;;;;;;;;;;;;
2020/06/05 01:27:46;;;;;;;1.5;0.7;;;;;;;;;;;;;
2020/06/05 01:30:13;;;;;;;1.3;0.6;;;;;;;;;;;;;
2020/06/05 01:32:38;;;;;;;0.9;0.6;;;;;;;;;;;;;
2020/06/05 01:35:04;;;;;;;0.9;0.6;;;;;;;;;;;;;
2020/06/05 01:37:29;;;;;;;1;0.6;;;;;;;;;;;;;
2020/06/05 01:39:56;;;;;;;1.7;0.8;;;;;;;;;;;;;
2020/06/05 01:42:21;;;;;;;1.2;0.6;;;;;;;;;;;;;
2020/06/05 01:44:47;;;;;;;1.6;0.8;;;;;;;;;;;;;
2020/06/05 01:47:12;;;;;;;0.8;0.5;;;;;;;;;;;;;
2020/06/05 01:49:38;;;;;;;0.9;0.6;;;;;;;;;;;;;
2020/06/05 01:52:03;;;;;;;1.8;0.7;;;;;;;;;;;;;
2020/06/05 01:54:30;;;;;;;1.1;0.6;;;;;;;;;;;;;
2020/06/05 01:59:20;;;;;;;1;0.6;;;;;;;;;;;;;
2020/06/05 02:01:51;;;;;;;0.9;0.6;;;;;;;;;;;;;
2020/06/05 02:04:11;;;;;;;0.8;0.7;;;;;;;;;;;;;
2020/06/05 02:06:38;;;;;;;2.7;0.8;;;;;;;;;;;;;
2020/06/05 02:09:03;;;;;;;0.9;0.7;;;;;;;;;;;;;
2020/06/05 02:11:28;;;;;;;1.6;0.6;;;;;;;;;;;;;
2020/06/05 02:13:53;;;;;;;1;0.8;;;;;;;;;;;;;
2020/06/05 02:16:18;;;;;;;0.9;0.6;;;;;;;;;;;;;
2020/06/05 02:18:46;;;;;;;1.2;0.7;;;;;;;;;;;;;
2020/06/05 02:21:11;;;;;;;1.9;0.7;;;;;;;;;;;;;
2020/06/05 02:23:36;;;;;;;1.9;0.7;;;;;;;;;;;;;
2020/06/05 02:26:01;;;;;;;1.3;0.8;;;;;;;;;;;;;
2020/06/05 02:28:26;;;;;;;1;0.6;;;;;;;;;;;;;
2020/06/05 02:30:51;;;;;;;1.5;0.5;;;;;;;;;;;;;
2020/06/05 02:33:17;;;;;;;1.8;0.7;;;;;;;;;;;;;
2020/06/05 02:35:42;;;;;;;3.2;0.8;;;;;;;;;;;;;
2020/06/05 02:38:10;;;;;;;1.1;0.6;;;;;;;;;;;;;
2020/06/05 02:40:40;;;;;;;2;0.7;;;;;;;;;;;;;
2020/06/05 02:45:25;;;;;;;2.4;0.6;;;;;;;;;;;;;
2020/06/05 02:47:53;;;;;;;1.8;0.7;;;;;;;;;;;;;
2020/06/05 02:52:52;;;;;;;1.1;0.8;;;;;;;;;;;;;
2020/06/05 02:55:12;;;;;;;1;0.8;;;;;;;;;;;;;
2020/06/05 02:57:39;;;;;;;2.1;0.9;;;;;;;;;;;;;
2020/06/05 03:00:02;;;;;;;0.9;0.6;;;;;;;;;;;;;
2020/06/05 03:02:37;;;;;;;2.6;0.7;;;;;;;;;;;;;
2020/06/05 03:07:22;;;;;;;0.8;0.6;;;;;;;;;;;;;
2020/06/05 03:17:02;;;;;;;1.7;0.7;;;;;;;;;;;;;
2020/06/05 03:19:30;;;;;;;1.6;0.6;;;;;;;;;;;;;
2020/06/05 03:24:14;;;;;;;1;0.6;;;;;;;;;;;;;
2020/06/05 03:29:11;;;;;;;1.1;0.6;;;;;;;;;;;;;
2020/06/05 03:33:59;;;;;;;1;0.6;;;;;;;;;;;;;
2020/06/05 03:36:21;;;;;;;0.9;0.6;;;;;;;;;;;;;
2020/06/05 03:39:50;;;;;;;1.7;0.6;;;;;;;;;;;;;
2020/06/05 03:41:13;;;;;;;0.8;0.8;;;;;;;;;;;;;
2020/06/05 03:48:37;;;;;;;2.2;0.9;;;;;;;;;;;;;
2020/06/05 03:51:09;;;;;;;2.1;1;;;;;;;;;;;;;
2020/06/05 03:53:26;;;;;;;2.1;1;;;;;;;;;;;;;
2020/06/05 03:55:46;;;;;;;1.9;1.3;;;;;;;;;;;;;
2020/06/05 03:58:14;;;;;;;3.8;1.6;;;;;;;;;;;;;
2020/06/05 04:05:02;;;;;;;2.1;1.5;;;;;;;11.95;89.32813;922.0753;;;;
2020/06/05 04:10:05;;;;;;;1.2;0.9;;;;;;;12.06;88.95898;922.1498;;;;
2020/06/05 04:12:21;;;;;;;1.1;1;;;;;;;11.94;89.67773;922.1482;;;;
2020/06/05 04:17:24;;;;;;;2;0.9;;;;;;;11.83;90.0459;922.1831;;;;
2020/06/05 04:21:25;;;;;;;1.5;1;;;;;;;11.71;89.68945;922.2297;;;;
2020/06/05 04:22:10;;;;;;;1.1;0.8;;;;;;;11.74;89.87891;922.1877;;;;
2020/06/05 04:24:30;;;;;;;1.1;0.8;;;;;;;11.76;89.60547;922.2056;;;;
2020/06/05 04:26:51;;;;;;;1.3;1;;;;;;;11.75;89.7207;922.2329;;;;
2020/06/05 04:29:16;;;;;;;1.3;0.8;;;;;;;11.8;90.18945;922.2369;;;;
2020/06/05 04:34:57;;;;;;;1.5;0.8;;;;;;;11.86;89.87988;922.2743;;;;
2020/06/05 04:36:45;;;;;;;2.8;0.8;;;;;;;11.83;89.73535;922.2534;;;;
2020/06/05 04:39:06;;;;;;;2.1;0.9;;;;;;;11.8;89.91504;922.3134;;;;
2020/06/05 04:41:32;;;;;;;2.8;0.9;;;;;;;11.81;89.8916;922.2983;;;;
2020/06/05 04:46:38;;;;;;;2.8;2.5;;;;;;;11.84;89.69141;922.3258;;;;
2020/06/05 04:48:53;;;;;;;3.4;1.9;;;;;;;11.77;90.6377;922.3259;;;;
2020/06/05 04:51:23;;;;;;;2.8;1.9;;;;;;;11.85;90.31348;922.4236;;;;
2020/06/05 04:53:46;;;;;;;1.7;1;;;;;;;11.86;90.09766;922.3675;;;;
2020/06/05 04:56:14;;;;;;;1.2;0.9;;;;;;;11.84;89.66797;922.3258;;;;
2020/06/05 04:58:39;;;;;;;1.2;1;;;;;;;11.95;89.63574;922.3864;;;;
2020/06/05 05:04:44;;;;;;;1.3;1;;;;;;;12.14;88.68848;922.4423;;;;
2020/06/05 05:10:56;;;;;;;1.8;1;;;;;;;12.33;88.25781;922.5087;;;;
2020/06/05 05:13:09;;;;;;;1.6;1;;;;;;;12.37;88.40234;922.6401;;;;
2020/06/05 05:17:58;;;;;;;1.3;1;;;;;;;12.47;87.81641;922.6492;;;;
2020/06/05 05:20:25;;;;;;;1.2;1;;;;;;;12.37;88.79199;922.6714;;;;
2020/06/05 05:22:51;;;;;;;1;0.8;;;;;;;12.45;88.23535;922.6777;;;;
2020/06/05 05:25:29;;;;;;;1.8;0.9;;;;;;;12.39;88.29297;922.6412;;;;
2020/06/05 05:27:49;;;;;;;1.4;0.9;;;;;;;12.46;88.44434;922.5937;;;;
2020/06/05 05:30:31;;;;;;;2.2;0.9;;;;;;;12.47;88.28516;922.6191;;;;
2020/06/05 05:36:09;;;;;;;1.3;0.9;;;;;;;12.59;87.20996;922.6209;;;;
2020/06/05 05:37:35;;;;;;;2.2;1;;;;;;;12.54;87.00391;922.6119;;;;
2020/06/05 05:39:53;;;;;;;1;0.9;;;;;;;12.55;87.08594;922.6401;;;;
2020/06/05 05:42:19;;;;;;;1;0.9;;;;;;;12.64;87.36816;922.6975;;;;
2020/06/05 05:44:47;;;;;;;2.6;1.2;;;;;;;12.73;87.30566;922.6707;;;;
2020/06/05 05:47:17;;;;;;;1.8;1;;;;;;;12.69;87.48047;922.7012;;;;
2020/06/05 05:54:30;;;;;;;1.4;0.9;;;;;;;12.76;87.4375;922.812;;;;
2020/06/05 05:56:55;;;;;;;2.7;0.9;;;;;;;12.88;87.2793;922.7478;;;;
2020/06/05 05:59:20;;;;;;;1.7;1.3;;;;;;;12.99;86.80664;922.85;;;;
2020/06/05 06:01:45;;;;;;;6.4;4.4;;;;;;;13.09;86.44824;922.8212;;;;
2020/06/05 06:04:12;;;;;;;4.1;3;;;;;;;13.22;86.10742;922.8209;;;;
2020/06/05 06:06:41;;;;;;;1.6;1.2;;;;;;;13.34;85.75098;922.945;;;;
2020/06/05 06:09:09;;;;;;;2.5;1;;;;;;;13.41;85.28223;923.0342;;;;
2020/06/05 06:16:28;;;;;;;2.2;1;;;;;;;13.56;83.83887;922.9907;;;;
2020/06/05 06:18:56;;;;;;;1.2;1;;;;;;;13.63;84.04883;922.9531;;;;
2020/06/05 06:21:14;;;;;;;1.2;1;;;;;;;13.77;83.89063;922.9846;;;;
2020/06/05 06:23:40;;;;;;;2.2;1.1;;;;;;;13.9;83.11133;922.9907;;;;
2020/06/05 06:29:51;;;;;;;3.8;1.2;;;;;;;13.97;80.62793;923.0623;;;;
2020/06/05 06:31:14;;;;;;;2;1.2;;;;;;;13.92;81.37695;923.0463;;;;
2020/06/05 06:33:29;;;;;;;2.5;1.1;;;;;;;13.89;80.47266;923.0464;;;;
2020/06/05 06:37:06;;;;;;;2.5;1;;;;;;;13.88;81.9209;923.0226;;;;
2020/06/05 06:43:59;;;;;;;1.2;1;;;;;;;14.52;81.35059;922.9821;;;;
2020/06/05 06:45:34;;;;;;;2;0.9;;;;;;;14.92;79.00195;922.9476;;;;
2020/06/05 06:49:24;;;;;;;3.1;1.4;;;;;;;15.44;77.66699;922.876;;;;
2020/06/05 06:50:23;;;;;;;2;0.9;;;;;;;16.2;73.60059;922.9267;;;;
2020/06/05 06:52:49;;;;;;;1.2;0.6;;;;;;;16.99;68.12598;922.9178;;;;
2020/06/05 06:55:24;;;;;;;1.1;0.5;;;;;;;19.65;62.02246;922.8427;;;;
2020/06/05 06:57:51;;;;;;;0.8;0.6;;;;;;;20.07;58.04297;922.8375;;;;
2020/06/05 07:00:18;;;;;;;3.1;0.7;;;;;;;20.01;57.39355;922.7482;;;;
2020/06/05 07:05:26;;;;;;;1.3;0.7;;;;;;;19.81;61.36719;922.7094;;;;
2020/06/05 07:07:38;;;;;;;3;0.6;;;;;;;22.37;51.4248;922.6786;;;;
2020/06/05 07:09:59;;;;;;;0.7;0.5;;;;;;;22.73;48.49609;922.6375;;;;
2020/06/05 07:12:26;;;;;;;1;0.5;;;;;;;21.76;51.31836;922.6244;;;;
2020/06/05 07:14:54;;;;;;;1.9;0.5;;;;;;;21.33;52.60352;922.5917;;;;
2020/06/05 07:17:40;;;;;;;2.3;0.4;;;;;;;20.48;51.33398;922.6793;;;;
2020/06/05 07:19:57;;;;;;;0.7;0.4;;;;;;;19.58;51.7998;922.6708;;;;
2020/06/05 07:22:03;;;;;;;0.7;0.5;;;;;;;18.53;60.31836;922.7488;;;;
2020/06/05 07:25:06;;;;;;;0.9;0.5;;;;;;;18.02;59.53906;922.7085;;;;
2020/06/05 07:26:49;;;;;;;2.1;0.6;;;;;;;17.71;61.65723;922.7198;;;;
2020/06/05 07:29:15;;;;;;;1.3;0.5;;;;;;;17.49;65.12891;922.7237;;;;
2020/06/05 07:31:45;;;;;;;1;0.5;;;;;;;18.12;59.65723;922.722;;;;
2020/06/05 07:39:07;;;;;;;1.7;0.5;;;;;;;21.04;53.90137;922.7451;;;;
2020/06/05 07:46:24;;;;;;;1;0.3;;;;;;;26.91;34.08008;922.6959;;;;
2020/06/05 07:49:56;;;;;;;1;0.3;;;;;;;26.25;40.11133;922.6306;;;;
2020/06/05 07:51:02;;;;;;;1.7;0.3;;;;;;;25.51;40.44824;922.671;;;;
2020/06/05 07:54:05;;;;;;;0.5;0.3;;;;;;;25.43;39.95605;922.6362;;;;
2020/06/05 07:55:52;;;;;;;1.1;0.4;;;;;;;24;42.61816;922.6149;;;;
2020/06/05 07:58:18;;;;;;;2.1;0.4;;;;;;;24.42;43.64844;922.585;;;;
2020/06/05 08:03:19;;;;;;;1;0.3;;;;;;;26.76;39.71973;922.687;;;;
2020/06/05 08:06:38;;;;;;;1.8;0.3;;;;;;;26.39;38.0293;922.677;;;;
2020/06/05 08:10:27;;;;;;;2.1;0.2;;;;;;;28.5;34.07031;922.5662;;;;
2020/06/05 08:12:54;;;;;;;1.7;0.3;;;;;;;26.52;38.51367;922.4847;;;;
2020/06/05 08:15:23;;;;;;;1.4;0.5;;;;;;;25.25;42.14746;922.5325;;;;
2020/06/05 08:19:30;;;;;;;2.8;0.6;;;;;;;24.46;43.11035;922.5676;;;;
2020/06/05 08:20:15;;;;;;;1.8;0.5;;;;;;;24.11;44.79492;922.5309;;;;
2020/06/05 08:25:06;;;;;;;3.5;0.7;;;;;;;22.8;47.17773;922.5122;;;;
2020/06/05 08:27:28;;;;;;;0.7;0.5;;;;;;;21.94;49.25488;922.5876;;;;
2020/06/05 08:29:50;;;;;;;5;0.8;;;;;;;21.48;51.69629;922.5317;;;;
2020/06/05 08:37:14;;;;;;;6.2;0.9;;;;;;;20.96;52.80469;922.5516;;;;
2020/06/05 08:39:36;;;;;;;2.8;0.7;;;;;;;21.27;50.52441;922.6244;;;;
2020/06/05 08:46:52;;;;;;;3;0.6;;;;;;;20.39;53.66016;922.6609;;;;
2020/06/05 08:52:03;;;;;;;3.3;0.6;;;;;;;20.1;56.54199;922.6605;;;;
2020/06/05 08:56:58;;;;;;;1.7;0.6;;;;;;;19.69;56.31445;922.6542;;;;
2020/06/05 08:59:04;;;;;;;0.7;0.5;;;;;;;19.6;58.72754;922.6373;;;;
2020/06/05 09:03:52;;;;;;;1;0.7;;;;;;;19.86;57.80566;922.6747;;;;
2020/06/05 09:06:13;;;;;;;1.4;0.6;;;;;;;19.71;56.00195;922.7372;;;;
2020/06/05 09:08:39;;;;;;;1.1;0.5;;;;;;;20.06;53.17578;922.7142;;;;
2020/06/05 09:11:51;;;;;;;1.2;0.7;;;;;;;20.66;52.43066;922.7781;;;;
2020/06/05 09:18:30;;;;;;;4;0.6;;;;;;;22.84;49.4707;922.718;;;;
2020/06/05 09:23:09;;;;;;;0.7;0.5;;;;;;;23.25;48.61133;922.6994;;;;
2020/06/05 09:30:31;;;;;;;3.2;0.5;;;;;;;24.74;44.49316;922.6972;;;;
2020/06/05 09:33:04;;;;;;;0.6;0.5;;;;;;;24.05;45.4834;922.75;;;;
2020/06/05 09:35:31;;;;;;;1.6;0.5;;;;;;;24.09;44.15723;922.769;;;;
2020/06/05 09:37:56;;;;;;;2.6;0.7;;;;;;;24.8;43.5791;922.7808;;;;
2020/06/05 09:40:29;;;;;;;3.3;0.6;;;;;;;25.06;44.32422;922.7911;;;;
2020/06/05 09:43:26;;;;;;;1.4;0.6;;;;;;;24.97;44.39844;922.807;;;;
2020/06/05 09:45:24;;;;;;;1.7;0.5;;;;;;;24.54;44.62695;922.7;;;;
2020/06/05 09:47:51;;;;;;;0.5;0.5;;;;;;;24.2;45.77051;922.7065;;;;
2020/06/05 09:50:31;;;;;;;1.4;0.7;;;;;;;23.64;44.81934;922.6747;;;;
2020/06/05 09:55:22;;;;;;;3.8;0.6;;;;;;;23.66;47.19727;922.6825;;;;
2020/06/05 09:57:37;;;;;;;0.6;0.4;;;;;;;24.16;42.52734;922.5544;;;;
2020/06/05 10:02:26;;;;;;;3.4;0.5;;;;;;;23.41;44.64355;922.6205;;;;
2020/06/05 10:07:26;;;;;;;1.8;0.6;;;;;;;23.59;46.91895;922.5319;;;;
2020/06/05 10:12:11;;;;;;;2.2;0.6;;;;;;;24;44.73828;922.5072;;;;
2020/06/05 10:14:33;;;;;;;1.4;0.6;;;;;;;24.17;42.77637;922.4838;;;;
2020/06/05 10:24:01;;;;;;;0.7;0.6;;;;;;;24.69;43.12109;922.4545;;;;
2020/06/05 10:24:21;;;;;;;1.4;0.3;;;;;;;24.48;41.33203;922.3195;;;;
2020/06/05 10:26:38;;;;;;;1.7;0.5;;;;;;;24.19;42.02344;922.2924;;;;
2020/06/05 10:29:10;;;;;;;0.9;0.5;;;;;;;23.86;44.1709;922.2963;;;;
2020/06/05 10:31:28;;;;;;;0.5;0.3;;;;;;;24.1;41.83887;922.3422;;;;
2020/06/05 10:33:53;;;;;;;1.7;0.5;;;;;;;23.82;41.56543;922.3485;;;;
2020/06/05 10:36:18;;;;;;;0.9;0.5;;;;;;;23.77;42.57324;922.3434;;;;
2020/06/05 10:38:37;;;;;;;1.6;0.5;;;;;;;23.8;42.54004;922.3473;;;;
2020/06/05 10:41:08;;;;;;;1.3;0.8;;;;;;;23.56;42.63574;922.2781;;;;
2020/06/05 10:43:31;;;;;;;1.3;0.6;;;;;;;23.5;44.1582;922.3042;;;;
2020/06/05 10:45:58;;;;;;;0.6;0.5;;;;;;;22.79;42.06836;922.2827;;;;
2020/06/05 10:50:51;;;;;;;1.8;0.6;;;;;;;22.74;45.5498;922.3254;;;;
2020/06/05 10:54:31;;;;;;;1.1;0.5;;;;;;;22.97;42.21484;922.282;;;;
2020/06/05 10:56:24;;;;;;;0.7;0.4;;;;;;;23.08;43.81152;922.2567;;;;
2020/06/05 10:59:26;;;;;;;0.5;0.5;;;;;;;22.86;41.41699;922.2827;;;;
2020/06/05 11:00:30;;;;;;;0.5;0.4;;;;;;;22.91;41.41016;922.2729;;;;
2020/06/05 11:03:44;;;;;;;2.6;0.5;;;;;;;23.2;44.08203;922.2043;;;;
2020/06/05 11:05:27;;;;;;;0.8;0.4;;;;;;;23.35;40.49902;922.2073;;;;
2020/06/05 11:07:56;;;;;;;0.7;0.4;;;;;;;23.19;43.14063;922.2195;;;;
2020/06/05 11:15:11;;;;;;;0.8;0.4;;;;;;;23.38;42.06543;922.1319;;;;
2020/06/05 11:17:30;;;;;;;1.6;0.6;;;;;;;23.11;43.60254;922.115;;;;
2020/06/05 11:20:07;;;;;;;0.7;0.4;;;;;;;23.05;42.72754;922.0995;;;;
2020/06/05 11:25:26;;;;;;;0.8;0.4;;;;;;;22.92;41.10547;922.1028;;;;
2020/06/05 11:27:46;;;;;;;1.8;0.5;;;;;;;22.86;41.75781;922.1113;;;;
2020/06/05 11:30:17;;;;;;;1.3;0.7;;;;;;;22.3;42.88965;922.0623;;;;
2020/06/05 11:32:53;;;;;;;1.1;0.5;;;;;;;22.74;42.83887;922.0396;;;;
2020/06/05 11:35:48;;;;;;;1.8;0.5;;;;;;;23.16;40.37598;921.9506;;;;
2020/06/05 11:40:33;;;;;;;0.4;0.4;;;;;;;23.64;42.70117;921.9899;;;;
2020/06/05 11:42:18;;;;;;;0.8;0.3;;;;;;;23.91;40.24316;921.9286;;;;
2020/06/05 11:44:42;;;;;;;1;0.5;;;;;;;24.01;38.15723;921.9592;;;;
2020/06/05 11:47:19;;;;;;;1;0.4;;;;;;;23.54;39.58691;921.9196;;;;
2020/06/05 11:52:17;;;;;;;2.1;0.5;;;;;;;23.09;42.9668;921.9738;;;;
2020/06/05 11:54:33;;;;;;;1.5;0.4;;;;;;;23.39;40.25586;921.9633;;;;
2020/06/05 11:57:00;;;;;;;2.4;0.4;;;;;;;22.91;40.54199;921.945;;;;
2020/06/05 11:59:23;;;;;;;0.8;0.4;;;;;;;22.99;42.23926;921.945;;;;
2020/06/05 12:04:23;;;;;;;0.7;0.4;;;;;;;22.94;41.4834;921.8826;;;;
2020/06/05 12:06:55;;;;;;;0.4;0.3;;;;;;;23.02;42.03027;921.93;;;;
2020/06/05 12:09:18;;;;;;;1.6;0.5;;;;;;;23.3;39.77637;921.8539;;;;
2020/06/05 12:11:40;;;;;;;1;0.4;;;;;;;23.56;43.92871;921.89;;;;
2020/06/05 12:26:58;;;;;;;2;0.7;;;;;;;23.19;41.90723;922.027;;;;
2020/06/05 12:28:48;;;;;;;1.6;0.5;;;;;;;23.12;42.28711;922.0719;;;;
2020/06/05 12:31:47;;;;;;;1.9;0.5;;;;;;;23.14;42.03125;922.077;;;;
2020/06/05 12:45:53;;;;;;;3.5;0.8;;;;;;;23.01;42.91211;922.1401;;;;
2020/06/05 12:48:25;;;;;;;1.9;0.6;;;;;;;23.15;43.47754;922.1777;;;;
2020/06/05 12:50:45;;;;;;;2.8;0.9;;;;;;;23.11;42.06348;922.1713;;;;
2020/06/05 12:55:42;;;;;;;1.6;0.7;;;;;;;22.59;44.49023;922.1252;;;;
2020/06/05 13:05:22;;;;;;;3.8;0.7;;;;;;;21.79;45.5459;922.2855;;;;
2020/06/05 13:07:55;;;;;;;2.2;0.7;;;;;;;21.68;46.14551;922.2299;;;;
2020/06/05 14:03:32;;;;;;;3.1;0.5;;;;;;;21.32;46.66895;922.4844;;;;
2020/06/05 14:07:56;;;;;;;1.5;0.6;;;;;;;21.36;46.8252;922.5728;;;;
2020/06/05 14:10:37;;;;;;;2.9;0.5;;;;;;;21.31;46.87793;922.668;;;;
2020/06/05 14:13:21;;;;;;;2.3;0.7;;;;;;;20.79;47.75879;922.6974;;;;
2020/06/05 14:24:09;;;;;;;1.3;0.6;;;;;;;20.27;49.10352;922.8452;;;;
2020/06/05 14:26:48;;;;;;;0.8;0.5;;;;;;;20.23;49.2627;922.8148;;;;
2020/06/05 14:29:13;;;;;;;1.9;0.6;;;;;;;20.14;49.90527;922.8289;;;;
2020/06/05 14:31:41;;;;;;;1;0.6;;;;;;;20.23;49.19141;922.8862;;;;
2020/06/05 14:43:04;;;;;;;4.2;0.7;;;;;;;19.54;49.61621;922.95;;;;
2020/06/05 14:54:01;;;;;;;2;0.7;;;;;;;18.97;51.55469;923.1409;;;;
2020/06/05 14:56:39;;;;;;;1.2;0.6;;;;;;;18.83;52.21387;923.2176;;;;
2020/06/05 15:01:42;;;;;;;2.5;0.5;;;;;;;18.78;51.66016;923.2858;;;;
2020/06/05 15:04:07;;;;;;;0.6;0.5;;;;;;;18.77;52.13477;923.2943;;;;
2020/06/05 15:18:30;;;;;;;2.8;0.7;;;;;;;18.53;52.12012;923.2827;;;;
2020/06/05 15:20:58;;;;;;;1.6;0.8;;;;;;;18.63;52.44434;923.345;;;;
2020/06/05 15:25:12;;;;;;;1.2;0.7;;;;;;;18.6;52.47656;923.2708;;;;
2020/06/05 15:25:51;;;;;;;1;0.6;;;;;;;18.53;51.96875;923.2963;;;;
2020/06/05 15:28:16;;;;;;;3;1;;;;;;;18.47;52.41406;923.3574;;;;
2020/06/05 15:30:46;;;;;;;1.7;0.9;;;;;;;18.58;51.98633;923.2539;;;;
2020/06/05 15:33:15;;;;;;;1;0.7;;;;;;;18.66;51.80957;923.2792;;;;
2020/06/05 15:35:54;;;;;;;0.9;0.7;;;;;;;18.8;51.89648;923.3223;;;;
2020/06/05 15:37:58;;;;;;;1;0.6;;;;;;;18.95;50.55176;923.3239;;;;
2020/06/05 15:40:30;;;;;;;2.4;0.7;;;;;;;18.93;50.16602;923.3336;;;;
2020/06/05 15:42:52;;;;;;;1.9;0.6;;;;;;;18.92;50.65332;923.3059;;;;
2020/06/05 15:45:19;;;;;;;1.4;0.8;;;;;;;18.98;50.81055;923.313;;;;
2020/06/05 15:47:44;;;;;;;1.2;0.7;;;;;;;19.23;51.29297;923.3842;;;;
2020/06/05 15:50:14;;;;;;;3.8;0.6;;;;;;;19.52;51.43359;923.4155;;;;
2020/06/05 15:52:39;;;;;;;1.7;0.7;;;;;;;19.51;49.7998;923.4202;;;;
2020/06/05 15:55:05;;;;;;;1.5;0.7;;;;;;;19.16;50.0166;923.4637;;;;
2020/06/05 15:57:31;;;;;;;1.2;0.7;;;;;;;19.14;50.68945;923.6591;;;;
2020/06/05 16:02:21;;;;;;;1.7;0.8;;;;;;;19.16;52.68359;923.788;;;;
2020/06/05 16:04:54;;;;;;;0.6;0.6;;;;;;;19.06;52.71875;923.7427;;;;
2020/06/05 16:07:16;;;;;;;1;0.6;;;;;;;18.97;52.62598;923.7021;;;;
2020/06/05 16:09:55;;;;;;;0.8;0.7;;;;;;;19;51.6748;923.741;;;;
2020/06/05 16:12:12;;;;;;;1.9;0.6;;;;;;;18.78;53.13867;923.7442;;;;
2020/06/05 16:19:21;;;;;;;0.7;0.6;;;;;;;18.21;54.87012;923.7933;;;;
2020/06/05 16:22:02;;;;;;;1.8;0.9;;;;;;;18.31;55.18652;923.8167;;;;
2020/06/05 16:24:10;;;;;;;1.4;0.6;;;;;;;18.39;53.41699;923.7222;;;;
2020/06/05 16:26:36;;;;;;;1.9;0.8;;;;;;;18.44;53.6543;923.7543;;;;
2020/06/05 16:29:01;;;;;;;2.2;0.8;;;;;;;18.49;54.52246;923.7969;;;;
2020/06/05 16:31:28;;;;;;;1.1;0.7;;;;;;;18.53;54.44629;923.8773;;;;
2020/06/05 16:33:53;;;;;;;1.3;0.7;;;;;;;18.33;53.82813;924.0543;;;;
2020/06/05 16:36:19;;;;;;;1.5;0.7;;;;;;;18.18;54.84375;924.1047;;;;
2020/06/05 16:38:44;;;;;;;2.4;0.8;;;;;;;17.94;55.58105;924.1805;;;;
2020/06/05 16:41:09;;;;;;;1;0.7;;;;;;;17.91;55.19336;924.1102;;;;
2020/06/05 16:43:35;;;;;;;1.2;0.7;;;;;;;17.89;55.58496;924.2062;;;;
2020/06/05 16:45:59;;;;;;;0.8;0.7;;;;;;;17.87;55.74512;924.2004;;;;
2020/06/05 16:48:26;;;;;;;1.1;0.7;;;;;;;17.96;56.04785;924.2659;;;;
2020/06/05 16:51:14;;;;;;;0.8;0.6;;;;;;;18.01;55.56543;924.2818;;;;
2020/06/05 16:53:22;;;;;;;0.7;0.6;;;;;;;18.04;55.19824;924.2484;;;;
2020/06/05 16:56:04;;;;;;;1.5;0.6;;;;;;;18.06;56.30371;924.1891;;;;
2020/06/05 16:58:16;;;;;;;0.7;0.6;;;;;;;17.74;55.63574;924.2258;;;;
2020/06/05 17:03:06;;;;;;;1.6;0.7;;;;;;;17.94;55.7207;924.2739;;;;
2020/06/05 17:07:56;;;;;;;3.8;0.9;;;;;;;17.72;58.82617;924.2731;;;;
2020/06/05 17:12:48;;;;;;;1;0.7;;;;;;;17.79;56.35156;924.3225;;;;
2020/06/05 17:15:13;;;;;;;0.8;0.7;;;;;;;17.92;55.3916;924.3386;;;;
2020/06/05 17:17:30;;;;;;;1;0.7;;;;;;;17.9;55.29688;924.3207;;;;
2020/06/05 17:19:55;;;;;;;2;0.7;;;;;;;18.05;57.12695;924.3262;;;;
2020/06/05 17:22:20;;;;;;;1.1;0.7;;;;;;;18.08;57.07227;924.351;;;;
2020/06/05 17:24:45;;;;;;;1.9;0.9;;;;;;;18.06;55.98926;924.3453;;;;
2020/06/05 17:27:11;;;;;;;1.4;0.8;;;;;;;17.94;55.69629;924.4007;;;;
2020/06/05 17:29:36;;;;;;;2.8;1.1;;;;;;;17.95;55.67383;924.3679;;;;
2020/06/05 17:32:01;;;;;;;3.6;0.9;;;;;;;17.82;56.06445;924.4086;;;;
2020/06/05 17:34:26;;;;;;;1.1;0.8;;;;;;;17.84;56.20605;924.4458;;;;
2020/06/05 17:36:51;;;;;;;1.8;0.8;;;;;;;17.95;56.40527;924.4767;;;;
2020/06/05 17:39:16;;;;;;;0.9;0.7;;;;;;;17.93;56.35645;924.5114;;;;
2020/06/05 17:41:46;;;;;;;0.9;0.6;;;;;;;18.02;57.37891;924.5633;;;;
2020/06/05 17:44:11;;;;;;;2.9;0.7;;;;;;;18.02;58.16895;924.5602;;;;
2020/06/05 17:46:39;;;;;;;3.2;1;;;;;;;17.87;60.78418;924.5106;;;;
2020/06/05 17:49:13;;;;;;;2.2;1;;;;;;;17.91;60.08203;924.5533;;;;
2020/06/05 17:51:34;;;;;;;4.3;1.3;;;;;;;17.83;59.46777;924.5564;;;;
2020/06/05 17:54:06;;;;;;;2.9;1.2;;;;;;;17.68;58.66895;924.5922;;;;
2020/06/05 17:56:32;;;;;;;3.7;1.5;;;;;;;17.72;58.07129;924.6049;;;;
2020/06/05 17:58:57;;;;;;;3.5;1.2;;;;;;;17.73;57.42285;924.6318;;;;
2020/06/05 18:01:23;;;;;;;2.5;1.2;;;;;;;17.64;57.41113;924.5282;;;;
2020/06/05 18:03:48;;;;;;;3.9;1.3;;;;;;;17.61;57.74219;924.5533;;;;
2020/06/05 18:06:14;;;;;;;3.1;1;;;;;;;17.56;57.8291;924.5302;;;;
2020/06/05 18:08:39;;;;;;;1.7;1;;;;;;;17.6;57.82422;924.5251;;;;
2020/06/05 18:11:04;;;;;;;2.7;1.1;;;;;;;17.62;58.52246;924.6656;;;;
2020/06/05 18:13:29;;;;;;;1.7;1.1;;;;;;;17.52;60.25977;924.7202;;;;
2020/06/05 18:15:54;;;;;;;2.1;1.3;;;;;;;17.34;60.49023;924.7573;;;;
2020/06/05 18:18:19;;;;;;;2.2;0.9;;;;;;;17.25;61.73242;924.775;;;;
2020/06/05 18:20:47;;;;;;;1.3;1.1;;;;;;;17.19;61.87305;924.729;;;;
2020/06/05 18:23:21;;;;;;;1.5;1;;;;;;;17.09;60.30566;924.7391;;;;
2020/06/05 18:25:38;;;;;;;2.5;1;;;;;;;17.07;62.36621;924.8636;;;;
2020/06/05 18:28:03;;;;;;;1.4;1.2;;;;;;;17.06;62.95508;924.8384;;;;
2020/06/05 18:30:28;;;;;;;1.5;1;;;;;;;17.06;61.83203;924.856;;;;
2020/06/05 18:32:53;;;;;;;3.2;1;;;;;;;17.06;62.94434;924.839;;;;
2020/06/05 18:35:19;;;;;;;4.6;1.2;;;;;;;17.03;62.73145;924.7919;;;;
2020/06/05 18:37:45;;;;;;;4.1;1.1;;;;;;;16.9;63.80176;924.8447;;;;
2020/06/05 18:40:10;;;;;;;2.2;1.2;;;;;;;16.74;63.0498;924.8677;;;;
2020/06/05 18:42:39;;;;;;;2.2;1.5;;;;;;;16.62;62.95117;924.8911;;;;
2020/06/05 18:45:01;;;;;;;2.5;1.4;;;;;;;16.66;64.27637;924.905;;;;
2020/06/05 18:49:52;;;;;;;1.8;1.3;;;;;;;16.71;64.42285;925.0394;;;;
2020/06/05 18:52:17;;;;;;;2.4;1.4;;;;;;;16.65;64.61035;925.0083;;;;
2020/06/05 18:54:56;;;;;;;2.3;1.3;;;;;;;16.62;66.87598;925.0672;;;;
2020/06/05 19:03:03;;;;;;;2.4;1.1;;;;;;;16.57;66.52051;925.1683;;;;
2020/06/05 19:04:29;;;;;;;4.2;1.6;;;;;;;16.53;66.59766;925.1992;;;;
2020/06/05 19:06:54;;;;;;;5.8;1.8;;;;;;;16.52;66.57129;925.1827;;;;
2020/06/05 19:09:32;;;;;;;2.7;1.3;;;;;;;16.52;66.52539;925.202;;;;
2020/06/05 19:16:36;;;;;;;4.9;1.9;;;;;;;16.36;67.75195;925.2842;;;;
2020/06/05 19:23:53;;;;;;;4.5;1.4;;;;;;;16.04;68.09473;925.4367;;;;
2020/06/05 19:26:25;;;;;;;2.3;1.2;;;;;;;16.05;69.56445;925.4822;;;;
2020/06/05 19:31:27;;;;;;;2.9;1.6;;;;;;;15.89;71.20313;925.572;;;;
2020/06/05 19:34:07;;;;;;;3.1;1.4;;;;;;;15.87;71.38379;925.6033;;;;
2020/06/05 19:41:31;;;;;;;13.6;2.3;;;;;;;15.67;72.06934;925.6869;;;;
2020/06/05 19:49:23;;;;;;;3.4;1.8;;;;;;;15.65;70.98047;925.7894;;;;
2020/06/05 19:51:00;;;;;;;4.6;1.5;;;;;;;15.68;71.21582;925.8423;;;;
2020/06/05 19:55:50;;;;;;;8.1;4.6;;;;;;;15.72;71.02441;925.9135;;;;
2020/06/05 19:58:00;;;;;;;6.1;3.8;;;;;;;15.75;70.68262;925.935;;;;
2020/06/05 20:00:39;;;;;;;7;3.7;;;;;;;15.79;70.71289;925.9489;;;;
2020/06/05 20:02:53;;;;;;;5;3;;;;;;;15.82;70.00098;925.9588;;;;
2020/06/05 20:10:20;;;;;;;4.9;2.2;;;;;;;15.75;70.61523;925.9756;;;;
2020/06/05 20:12:49;;;;;;;5.2;2.1;;;;;;;15.7;70.68652;926.0383;;;;
2020/06/05 20:14:53;;;;;;;1.8;1.5;;;;;;;15.69;70.54492;926.1086;;;;
2020/06/05 20:17:16;;;;;;;2.4;1.7;;;;;;;15.65;70.63379;926.1585;;;;
2020/06/05 20:19:53;;;;;;;2.9;1.5;;;;;;;15.35;70.42188;926.1568;;;;
2020/06/05 20:22:13;;;;;;;4.4;1.4;;;;;;;15.04;71.25;926.2458;;;;
2020/06/05 20:24:36;;;;;;;4.9;1.8;;;;;;;15.26;72.55566;926.2338;;;;
2020/06/05 20:27:04;;;;;;;3.6;1.8;;;;;;;15.41;71.72559;926.2087;;;;
2020/06/05 20:29:35;;;;;;;3.4;2;;;;;;;15.33;71.94434;926.182;;;;
2020/06/05 20:39:15;;;;;;;3.2;1.8;;;;;;;14.87;74.12793;926.3031;;;;
2020/06/05 20:41:35;;;;;;;5.7;1.4;;;;;;;14.92;73.8252;926.2809;;;;
2020/06/05 21:54:22;;;;;;;2.4;1.5;;;;;;;14.28;76.99902;926.3912;;;;
2020/06/05 22:18:26;;;;;;;2.5;1.3;;;;;;;14.04;77.7041;926.4215;;;;
2020/06/05 22:21:25;;;;;;;2.7;1.3;;;;;;;14.09;77.19727;926.5306;;;;
2020/06/05 22:23:36;;;;;;;2.7;1.4;;;;;;;14.09;77.15039;926.4739;;;;
2020/06/05 22:26:47;;;;;;;3;1.5;;;;;;;14.12;77.17773;926.4813;;;;
2020/06/05 22:32:33;;;;;;;3;1.3;;;;;;;13.85;77.57813;926.5215;;;;
2020/06/05 22:36:55;;;;;;;1.8;1.6;;;;;;;13.79;77.66113;926.5064;;;;
2020/06/05 22:37:56;;;;;;;1.3;1.2;;;;;;;13.84;77.58887;926.4553;;;;
2020/06/05 22:40:45;;;;;;;2.5;1.1;;;;;;;13.75;78.07813;926.5305;;;;
2020/06/05 22:44:02;;;;;;;2.2;1.2;;;;;;;13.62;78.42188;926.5398;;;;